createdAt,value
2018-03-27T00:00:14.968Z,5.13
2018-03-27T00:02:42.417Z,5.17
2018-03-27T00:05:15.769Z,5.07
2018-03-27T00:07:43.173Z,5.67
2018-03-27T00:10:10.651Z,5.60
2018-03-27T00:12:38.104Z,5.57
2018-03-27T00:15:05.593Z,6.00
2018-03-27T00:17:33.116Z,5.70
2018-03-27T00:20:00.590Z,5.77
2018-03-27T00:22:28.834Z,5.90
2018-03-27T00:24:56.316Z,5.57
2018-03-27T00:27:35.536Z,6.17
2018-03-27T00:30:15.084Z,5.90
2018-03-27T00:32:54.421Z,6.13
2018-03-27T00:35:33.845Z,5.47
2018-03-27T00:38:13.301Z,5.70
2018-03-27T00:40:42.876Z,6.23
2018-03-27T00:43:13.840Z,5.77
2018-03-27T00:45:42.466Z,6.13
2018-03-27T00:48:09.940Z,5.73
2018-03-27T00:50:37.405Z,5.50
2018-03-27T00:53:04.862Z,5.53
2018-03-27T00:55:32.345Z,5.87
2018-03-27T00:57:59.826Z,5.67
2018-03-27T01:00:28.069Z,5.43
2018-03-27T01:02:55.534Z,6.10
2018-03-27T01:05:23.008Z,6.10
2018-03-27T01:07:51.233Z,5.63
2018-03-27T01:10:18.749Z,5.83
2018-03-27T01:12:46.283Z,5.77
2018-03-27T01:15:13.765Z,5.47
2018-03-27T01:17:42.003Z,6.30
2018-03-27T01:20:09.477Z,5.83
2018-03-27T01:22:37.037Z,6.03
2018-03-27T01:25:04.512Z,5.73
2018-03-27T01:27:32.757Z,5.37
2018-03-27T01:30:00.237Z,5.13
2018-03-27T01:32:28.457Z,5.70
2018-03-27T01:34:55.930Z,5.67
2018-03-27T01:37:23.402Z,5.50
2018-03-27T01:39:50.876Z,5.47
2018-03-27T01:42:18.336Z,5.43
2018-03-27T01:44:45.804Z,5.77
2018-03-27T01:47:14.048Z,6.17
2018-03-27T01:49:41.625Z,5.77
2018-03-27T01:52:09.093Z,5.60
2018-03-27T01:54:37.379Z,5.87
2018-03-27T01:57:05.634Z,5.57
2018-03-27T01:59:33.095Z,5.77
2018-03-27T02:02:01.341Z,5.93
2018-03-27T02:04:28.798Z,6.10
2018-03-27T02:06:56.278Z,6.23
2018-03-27T02:09:23.732Z,5.80
2018-03-27T02:11:56.823Z,5.80
2018-03-27T02:14:30.073Z,5.97
2018-03-27T02:17:03.388Z,5.83
2018-03-27T02:19:36.683Z,5.40
2018-03-27T02:22:03.693Z,6.07
2018-03-27T02:24:34.615Z,6.17
2018-03-27T02:27:02.241Z,5.80
2018-03-27T02:29:29.746Z,6.03
2018-03-27T02:31:57.218Z,5.47
2018-03-27T02:34:24.680Z,6.20
2018-03-27T02:36:52.181Z,5.90
2018-03-27T02:39:19.744Z,5.30
2018-03-27T02:41:47.994Z,5.27
2018-03-27T02:44:15.457Z,5.73
2018-03-27T02:46:44.453Z,6.10
2018-03-27T02:49:12.020Z,6.40
2018-03-27T02:51:39.499Z,6.17
2018-03-27T02:54:07.728Z,6.30
2018-03-27T02:56:35.212Z,6.57
2018-03-27T02:59:02.689Z,5.90
2018-03-27T03:01:30.934Z,6.20
2018-03-27T03:03:58.398Z,6.27
2018-03-27T03:06:25.868Z,5.77
2018-03-27T03:08:54.108Z,5.83
2018-03-27T03:11:21.593Z,6.07
2018-03-27T03:13:49.064Z,6.03
2018-03-27T03:16:17.292Z,6.27
2018-03-27T03:18:44.753Z,5.83
2018-03-27T03:21:12.228Z,5.97
2018-03-27T03:23:39.794Z,6.73
2018-03-27T03:26:07.273Z,7.00
2018-03-27T03:28:35.496Z,7.03
2018-03-27T03:31:02.977Z,6.40
2018-03-27T03:33:30.546Z,6.83
2018-03-27T03:35:58.036Z,7.13
2018-03-27T03:38:25.502Z,7.17
2018-03-27T03:40:52.993Z,7.50
2018-03-27T03:43:21.361Z,7.47
2018-03-27T03:45:48.878Z,6.90
2018-03-27T03:48:16.409Z,7.37
2018-03-27T03:50:43.987Z,7.20
2018-03-27T03:53:12.224Z,6.73
2018-03-27T03:55:39.690Z,6.60
2018-03-27T03:58:07.156Z,6.50
2018-03-27T04:00:34.639Z,7.10
2018-03-27T04:03:02.865Z,7.37
2018-03-27T04:05:30.348Z,7.23
2018-03-27T04:07:58.606Z,7.87
2018-03-27T04:10:26.100Z,8.30
2018-03-27T04:12:54.329Z,7.63
2018-03-27T04:15:21.817Z,7.63
2018-03-27T04:17:49.308Z,9.10
2018-03-27T04:20:16.780Z,8.93
2018-03-27T04:22:44.253Z,9.43
2018-03-27T04:25:11.729Z,8.70
2018-03-27T04:27:39.212Z,8.00
2018-03-27T04:30:07.457Z,8.37
2018-03-27T04:32:35.188Z,7.70
2018-03-27T04:35:02.741Z,7.47
2018-03-27T04:37:30.224Z,7.70
2018-03-27T04:39:57.713Z,8.47
2018-03-27T04:42:26.826Z,7.83
2018-03-27T04:44:55.039Z,8.47
2018-03-27T04:47:22.570Z,8.20
2018-03-27T04:49:50.807Z,8.33
2018-03-27T04:52:18.374Z,8.50
2018-03-27T04:54:45.836Z,7.83
2018-03-27T04:57:13.320Z,8.50
2018-03-27T04:59:40.794Z,7.50
2018-03-27T05:02:08.265Z,7.87
2018-03-27T05:04:35.772Z,8.60
2018-03-27T05:07:04.020Z,8.43
2018-03-27T05:09:31.484Z,8.00
2018-03-27T05:11:58.996Z,21.03
2018-03-27T05:14:26.476Z,8.47
2018-03-27T05:16:53.945Z,9.23
2018-03-27T05:19:21.471Z,8.97
2018-03-27T05:21:48.956Z,8.87
2018-03-27T05:24:16.426Z,8.13
2018-03-27T05:26:43.915Z,9.77
2018-03-27T05:29:12.144Z,8.97
2018-03-27T05:31:39.637Z,8.77
2018-03-27T05:34:07.127Z,8.77
2018-03-27T05:36:34.638Z,8.07
2018-03-27T05:39:03.150Z,8.50
2018-03-27T05:41:31.396Z,8.60
2018-03-27T05:43:58.865Z,9.43
2018-03-27T05:46:26.334Z,9.70
2018-03-27T05:48:54.863Z,8.07
2018-03-27T05:51:22.363Z,8.93
2018-03-27T05:53:49.978Z,8.67
2018-03-27T05:56:17.742Z,9.13
2018-03-27T05:58:45.391Z,9.13
2018-03-27T06:01:12.997Z,8.57
2018-03-27T06:03:41.645Z,9.70
2018-03-27T06:06:09.912Z,9.17
2018-03-27T06:08:37.414Z,9.93
2018-03-27T06:11:04.914Z,8.27
2018-03-27T06:13:32.388Z,8.23
2018-03-27T06:15:59.865Z,8.23
2018-03-27T06:18:27.388Z,9.07
2018-03-27T06:20:54.945Z,8.40
2018-03-27T06:23:22.928Z,8.37
2018-03-27T06:25:50.542Z,8.33
2018-03-27T06:28:18.340Z,8.40
2018-03-27T06:30:46.029Z,8.40
2018-03-27T06:33:13.521Z,9.37
2018-03-27T06:35:41.223Z,9.23
2018-03-27T06:38:08.698Z,9.17
2018-03-27T06:40:36.924Z,9.30
2018-03-27T06:43:04.458Z,9.63
2018-03-27T06:45:32.021Z,9.13
2018-03-27T06:47:59.485Z,9.23
2018-03-27T06:50:26.982Z,9.20
2018-03-27T06:52:54.493Z,9.17
2018-03-27T06:55:22.044Z,9.37
2018-03-27T06:57:49.525Z,9.50
2018-03-27T07:00:16.992Z,9.43
2018-03-27T07:02:44.474Z,10.03
2018-03-27T07:05:12.727Z,9.60
2018-03-27T07:07:40.211Z,10.60
2018-03-27T07:10:07.722Z,9.13
2018-03-27T07:12:36.088Z,9.40
2018-03-27T07:15:03.623Z,10.03
2018-03-27T07:17:31.120Z,9.77
2018-03-27T07:19:58.600Z,9.30
2018-03-27T07:22:26.224Z,10.67
2018-03-27T07:24:55.216Z,9.47
2018-03-27T07:27:22.696Z,10.40
2018-03-27T07:29:50.937Z,9.70
2018-03-27T07:32:18.396Z,9.93
2018-03-27T07:34:45.896Z,11.03
2018-03-27T07:37:13.388Z,11.23
2018-03-27T07:39:42.818Z,9.60
2018-03-27T07:42:11.067Z,10.87
2018-03-27T07:44:38.617Z,10.37
2018-03-27T07:47:06.086Z,10.67
2018-03-27T07:49:33.587Z,10.73
2018-03-27T07:52:01.058Z,10.07
2018-03-27T07:54:28.554Z,10.27
2018-03-27T07:56:56.844Z,10.47
2018-03-27T07:59:24.430Z,10.03
2018-03-27T08:01:52.875Z,11.60
2018-03-27T08:04:20.365Z,10.37
2018-03-27T08:06:47.930Z,10.80
2018-03-27T08:09:15.424Z,11.67
2018-03-27T08:11:42.884Z,10.70
2018-03-27T08:14:10.370Z,10.70
2018-03-27T08:16:38.622Z,11.20
2018-03-27T08:19:06.108Z,11.23
2018-03-27T08:21:34.338Z,11.10
2018-03-27T08:24:01.945Z,11.50
2018-03-27T08:26:29.377Z,10.93
2018-03-27T08:28:56.834Z,11.60
2018-03-27T08:31:24.316Z,11.47
2018-03-27T08:33:52.536Z,11.50
2018-03-27T08:36:20.040Z,11.23
2018-03-27T08:38:47.540Z,11.33
2018-03-27T08:41:15.044Z,11.40
2018-03-27T08:43:42.530Z,11.07
2018-03-27T08:46:10.608Z,12.13
2018-03-27T08:48:38.182Z,11.87
2018-03-27T08:51:05.658Z,11.20
2018-03-27T08:53:33.129Z,11.93
2018-03-27T08:56:00.652Z,11.37
2018-03-27T08:58:28.181Z,12.43
2018-03-27T09:00:56.413Z,10.60
2018-03-27T09:03:23.943Z,11.50
2018-03-27T09:05:51.397Z,12.03
2018-03-27T09:08:18.884Z,11.37
2018-03-27T09:10:46.341Z,10.73
2018-03-27T09:13:13.829Z,11.00
2018-03-27T09:15:41.318Z,10.93
2018-03-27T09:18:08.796Z,11.03
2018-03-27T09:20:36.263Z,10.40
2018-03-27T09:23:03.757Z,11.20
2018-03-27T09:25:31.217Z,11.73
2018-03-27T09:27:58.704Z,11.83
2018-03-27T09:30:26.165Z,10.57
2018-03-27T09:32:53.693Z,10.63
2018-03-27T09:35:22.008Z,11.57
2018-03-27T09:37:49.499Z,11.47
2018-03-27T09:40:16.990Z,10.77
2018-03-27T09:42:45.257Z,10.53
2018-03-27T09:45:12.808Z,10.77
2018-03-27T09:47:40.286Z,10.80
2018-03-27T09:50:08.569Z,10.20
2018-03-27T09:52:36.926Z,10.70
2018-03-27T09:55:04.398Z,11.03
2018-03-27T09:57:32.656Z,10.40
2018-03-27T10:00:00.133Z,11.47
2018-03-27T10:02:28.381Z,10.77
2018-03-27T10:04:55.845Z,10.53
2018-03-27T10:07:23.329Z,10.23
2018-03-27T10:09:51.584Z,10.70
2018-03-27T10:12:19.108Z,10.97
2018-03-27T10:14:46.579Z,10.40
2018-03-27T10:17:14.156Z,11.67
2018-03-27T10:19:41.638Z,10.90
2018-03-27T10:22:09.911Z,11.40
2018-03-27T10:24:38.141Z,11.00
2018-03-27T10:27:05.762Z,11.37
2018-03-27T10:29:33.225Z,11.80
2018-03-27T10:32:01.507Z,12.03
2018-03-27T10:34:29.033Z,11.87
2018-03-27T10:36:57.310Z,13.37
2018-03-27T10:39:24.843Z,13.57
2018-03-27T10:41:53.132Z,13.20
2018-03-27T10:44:21.729Z,14.33
2018-03-27T10:46:49.214Z,13.47
2018-03-27T10:49:16.725Z,14.43
2018-03-27T10:51:44.260Z,14.80
2018-03-27T10:54:11.717Z,14.67
2018-03-27T10:56:39.220Z,14.47
2018-03-27T10:59:06.716Z,15.43
2018-03-27T11:01:34.236Z,14.93
2018-03-27T11:04:02.604Z,16.20
2018-03-27T11:06:30.851Z,15.33
2018-03-27T11:08:58.340Z,15.40
2018-03-27T11:11:26.612Z,15.73
2018-03-27T11:13:54.869Z,15.63
2018-03-27T11:16:22.335Z,15.23
2018-03-27T11:18:49.818Z,15.17
2018-03-27T11:21:17.292Z,15.17
2018-03-27T11:23:44.813Z,15.97
2018-03-27T11:26:13.196Z,15.57
2018-03-27T11:28:41.469Z,17.17
2018-03-27T11:31:08.925Z,17.40
2018-03-27T11:33:36.589Z,15.20
2018-03-27T11:36:04.141Z,15.33
2018-03-27T11:38:31.621Z,15.70
2018-03-27T11:40:59.857Z,16.03
2018-03-27T11:43:27.365Z,16.10
2018-03-27T11:45:54.833Z,15.47
2018-03-27T11:48:22.327Z,16.17
2018-03-27T11:50:49.788Z,16.53
2018-03-27T11:53:17.272Z,15.90
2018-03-27T11:55:45.505Z,16.07
2018-03-27T11:58:12.991Z,16.43
2018-03-27T12:00:40.495Z,15.67
2018-03-27T12:03:08.925Z,14.00
2018-03-27T12:05:36.394Z,15.17
2018-03-27T12:08:03.896Z,13.97
2018-03-27T12:10:31.377Z,14.73
2018-03-27T12:12:58.870Z,14.47
2018-03-27T12:15:27.133Z,15.40
2018-03-27T12:17:54.613Z,16.60
2018-03-27T12:20:22.879Z,15.77
2018-03-27T12:22:51.137Z,16.53
2018-03-27T12:25:18.755Z,17.20
2018-03-27T12:27:46.233Z,17.17
2018-03-27T12:30:13.709Z,17.43
2018-03-27T12:32:41.189Z,17.00
2018-03-27T12:35:09.431Z,17.23
2018-03-27T12:37:36.900Z,16.43
2018-03-27T12:40:04.376Z,17.13
2018-03-27T12:42:32.613Z,16.03
2018-03-27T12:45:00.101Z,17.63
2018-03-27T12:47:28.389Z,16.23
2018-03-27T12:49:56.639Z,16.90
2018-03-27T12:52:24.108Z,17.60
2018-03-27T12:54:51.597Z,17.33
2018-03-27T12:57:19.128Z,17.30
2018-03-27T12:59:47.380Z,16.47
2018-03-27T13:02:14.855Z,16.23
2018-03-27T13:04:42.345Z,15.97
2018-03-27T13:07:09.821Z,15.60
2018-03-27T13:09:37.309Z,16.53
2018-03-27T13:12:04.781Z,18.07
2018-03-27T13:14:32.394Z,21.27
2018-03-27T13:16:59.882Z,16.83
2018-03-27T13:19:27.360Z,17.30
2018-03-27T13:21:54.930Z,17.30
2018-03-27T13:24:23.176Z,16.93
2018-03-27T13:26:50.649Z,17.57
2018-03-27T13:29:19.037Z,16.90
2018-03-27T13:31:47.287Z,17.13
2018-03-27T13:34:14.765Z,16.80
2018-03-27T13:36:42.231Z,16.73
2018-03-27T13:39:10.501Z,16.90
2018-03-27T13:41:37.974Z,16.30
2018-03-27T13:44:06.274Z,17.77
2018-03-27T13:46:33.799Z,18.50
2018-03-27T13:49:02.110Z,17.73
2018-03-27T13:51:29.596Z,18.50
2018-03-27T13:53:57.092Z,18.97
2018-03-27T13:56:24.652Z,20.93
2018-03-27T13:58:52.904Z,19.87
2018-03-27T14:01:20.378Z,19.17
2018-03-27T14:03:47.935Z,19.97
2018-03-27T14:06:15.424Z,21.17
2018-03-27T14:08:42.908Z,19.83
2018-03-27T14:11:10.410Z,19.60
2018-03-27T14:13:37.904Z,19.70
2018-03-27T14:16:05.430Z,20.90
2018-03-27T14:18:33.698Z,19.90
2018-03-27T14:21:01.258Z,21.03
2018-03-27T14:23:28.842Z,22.40
2018-03-27T14:25:56.329Z,20.43
2018-03-27T14:28:23.835Z,20.30
2018-03-27T14:30:51.323Z,19.73
2018-03-27T14:33:19.505Z,21.80
2018-03-27T14:35:47.003Z,20.37
2018-03-27T14:38:14.541Z,19.90
2018-03-27T14:40:42.000Z,20.63
2018-03-27T14:43:09.469Z,40.57
2018-03-27T14:45:36.957Z,22.67
2018-03-27T14:48:04.422Z,23.50
2018-03-27T14:50:32.690Z,21.37
2018-03-27T14:53:00.942Z,20.70
2018-03-27T14:55:29.274Z,22.17
2018-03-27T14:57:56.748Z,22.03
2018-03-27T15:00:24.761Z,21.53
2018-03-27T15:02:53.762Z,22.30
2018-03-27T15:05:22.012Z,20.87
2018-03-27T15:07:50.404Z,21.77
2018-03-27T15:10:18.238Z,20.87
2018-03-27T15:12:45.704Z,22.17
2018-03-27T15:15:13.234Z,21.73
2018-03-27T15:17:40.752Z,22.20
2018-03-27T15:20:08.229Z,23.30
2018-03-27T15:22:36.492Z,20.57
2018-03-27T15:25:05.461Z,20.53
2018-03-27T15:27:32.953Z,19.90
2018-03-27T15:30:01.203Z,18.53
2018-03-27T15:32:29.469Z,18.23
2018-03-27T15:34:57.995Z,18.83
2018-03-27T15:37:25.484Z,18.70
2018-03-27T15:39:53.783Z,18.33
2018-03-27T15:42:21.268Z,18.13
2018-03-27T15:44:48.742Z,17.90
2018-03-27T15:47:16.230Z,18.03
2018-03-27T15:49:44.465Z,17.20
2018-03-27T15:52:11.952Z,16.40
2018-03-27T15:54:39.408Z,17.07
2018-03-27T15:57:06.908Z,17.17
2018-03-27T15:59:34.376Z,17.27
2018-03-27T16:02:01.932Z,16.90
2018-03-27T16:04:29.378Z,16.83
2018-03-27T16:06:56.871Z,17.67
2018-03-27T16:09:24.457Z,17.63
2018-03-27T16:11:51.942Z,17.60
2018-03-27T16:14:19.415Z,18.43
2018-03-27T16:16:46.916Z,17.63
2018-03-27T16:19:14.429Z,16.87
2018-03-27T16:21:41.917Z,17.07
2018-03-27T16:24:09.385Z,17.50
2018-03-27T16:26:36.900Z,17.43
2018-03-27T16:29:04.369Z,16.57
2018-03-27T16:31:31.850Z,16.97
2018-03-27T16:33:59.335Z,17.23
2018-03-27T16:36:26.833Z,17.47
2018-03-27T16:38:54.316Z,18.63
2018-03-27T16:41:21.901Z,18.10
2018-03-27T16:43:49.384Z,17.80
2018-03-27T16:46:17.684Z,17.50
2018-03-27T16:48:45.153Z,19.70
2018-03-27T16:51:12.647Z,17.70
2018-03-27T16:53:40.155Z,17.97
2018-03-27T16:56:07.686Z,17.33
2018-03-27T16:58:35.105Z,19.13
2018-03-27T17:01:02.737Z,19.43
2018-03-27T17:03:30.289Z,17.67
2018-03-27T17:05:57.783Z,18.13
2018-03-27T17:08:25.260Z,18.90
2018-03-27T17:10:52.730Z,18.17
2018-03-27T17:13:20.988Z,19.17
2018-03-27T17:15:48.438Z,20.43
2018-03-27T17:18:15.925Z,19.00
2018-03-27T17:20:44.153Z,18.83
2018-03-27T17:23:11.638Z,19.13
2018-03-27T17:25:39.231Z,19.07
2018-03-27T17:28:06.706Z,19.60
2018-03-27T17:30:34.213Z,20.83
2018-03-27T17:33:01.821Z,20.43
2018-03-27T17:35:29.281Z,19.80
2018-03-27T17:37:56.772Z,19.93
2018-03-27T17:40:24.245Z,20.83
2018-03-27T17:42:51.862Z,20.23
2018-03-27T17:45:19.355Z,20.90
2018-03-27T17:47:46.832Z,19.07
2018-03-27T17:50:15.086Z,20.43
2018-03-27T17:52:43.341Z,20.17
2018-03-27T17:55:11.742Z,19.70
2018-03-27T17:57:39.224Z,19.57
2018-03-27T18:00:07.474Z,19.63
2018-03-27T18:02:35.004Z,19.83
2018-03-27T18:05:02.465Z,19.83
2018-03-27T18:07:29.956Z,20.83
2018-03-27T18:09:57.414Z,20.50
2018-03-27T18:12:24.897Z,19.97
2018-03-27T18:14:53.168Z,19.80
2018-03-27T18:17:20.636Z,20.60
2018-03-27T18:19:48.209Z,20.30
2018-03-27T18:22:15.726Z,20.23
2018-03-27T18:24:43.288Z,20.70
2018-03-27T18:27:10.783Z,20.23
2018-03-27T18:29:38.315Z,21.47
2018-03-27T18:32:06.568Z,21.37
2018-03-27T18:34:34.066Z,21.53
2018-03-27T18:37:01.554Z,22.20
2018-03-27T18:39:29.028Z,23.27
2018-03-27T18:41:56.507Z,21.77
2018-03-27T18:44:23.972Z,21.37
2018-03-27T18:46:52.221Z,22.20
2018-03-27T18:49:19.698Z,22.77
2018-03-27T18:51:47.976Z,20.97
2018-03-27T18:54:15.530Z,23.50
2018-03-27T18:56:43.071Z,23.47
2018-03-27T18:59:10.630Z,22.60
2018-03-27T19:01:38.897Z,22.30
2018-03-27T19:04:06.392Z,21.50
2018-03-27T19:06:34.629Z,20.70
2018-03-27T19:09:02.225Z,21.23
2018-03-27T19:11:30.494Z,22.13
2018-03-27T19:13:58.069Z,23.27
2018-03-27T19:16:26.490Z,22.00
2018-03-27T19:18:53.975Z,22.63
2018-03-27T19:21:21.457Z,22.53
2018-03-27T19:23:49.725Z,22.37
2018-03-27T19:26:17.201Z,22.90
2018-03-27T19:28:45.454Z,22.90
2018-03-27T19:31:12.920Z,22.90
2018-03-27T19:33:40.409Z,23.03
2018-03-27T19:36:07.874Z,23.57
2018-03-27T19:38:35.363Z,24.23
2018-03-27T19:41:02.833Z,23.37
2018-03-27T19:43:31.118Z,23.60
2018-03-27T19:45:58.928Z,24.17
2018-03-27T19:48:26.421Z,22.63
2018-03-27T19:50:53.907Z,22.33
2018-03-27T19:53:22.319Z,24.00
2018-03-27T19:55:49.812Z,23.10
2018-03-27T19:58:17.400Z,21.90
2018-03-27T20:00:45.641Z,23.17
2018-03-27T20:03:13.132Z,23.00
2018-03-27T20:05:41.353Z,21.73
2018-03-27T20:08:08.928Z,21.37
2018-03-27T20:10:36.400Z,22.73
2018-03-27T20:13:03.909Z,22.57
2018-03-27T20:15:41.702Z,21.83
2018-03-27T20:17:58.906Z,22.13
2018-03-27T20:20:28.129Z,22.17
2018-03-27T20:22:55.637Z,22.30
2018-03-27T20:25:23.096Z,22.67
2018-03-27T20:27:50.569Z,22.83
2018-03-27T20:30:18.972Z,21.43
2018-03-27T20:32:46.508Z,22.00
2018-03-27T20:35:14.782Z,22.37
2018-03-27T20:37:42.495Z,23.03
2018-03-27T20:40:09.969Z,22.07
2018-03-27T20:42:37.577Z,22.87
2018-03-27T20:45:05.828Z,22.57
2018-03-27T20:47:33.303Z,22.43
2018-03-27T20:50:01.534Z,22.30
2018-03-27T20:52:29.031Z,22.87
2018-03-27T20:54:57.278Z,21.77
2018-03-27T20:57:25.056Z,21.87
2018-03-27T20:59:52.574Z,22.97
2018-03-27T21:02:20.188Z,22.50
2018-03-27T21:04:47.657Z,22.03
2018-03-27T21:07:15.176Z,20.80
2018-03-27T21:09:42.684Z,21.93
2018-03-27T21:12:10.952Z,22.80
2018-03-27T21:14:38.429Z,20.90
2018-03-27T21:17:06.662Z,22.23
2018-03-27T21:19:34.145Z,23.93
2018-03-27T21:22:01.604Z,22.67
2018-03-27T21:24:29.884Z,23.17
2018-03-27T21:26:58.161Z,23.73
2018-03-27T21:29:25.671Z,22.70
2018-03-27T21:31:53.218Z,22.90
2018-03-27T21:34:20.697Z,22.80
2018-03-27T21:36:48.182Z,23.23
2018-03-27T21:39:15.691Z,24.67
2018-03-27T21:41:43.149Z,24.23
2018-03-27T21:44:10.727Z,25.80
2018-03-27T21:46:38.189Z,23.90
2018-03-27T21:49:05.677Z,26.40
2018-03-27T21:51:33.146Z,24.80
2018-03-27T21:54:01.401Z,24.90
2018-03-27T21:56:28.872Z,26.10
2018-03-27T21:58:56.371Z,25.70
2018-03-27T22:01:23.911Z,24.50
2018-03-27T22:03:52.309Z,24.27
2018-03-27T22:06:25.746Z,24.70
2018-03-27T22:08:53.266Z,23.00
2018-03-27T22:11:20.790Z,23.77
2018-03-27T22:13:49.051Z,23.63
2018-03-27T22:16:16.616Z,22.80
2018-03-27T22:18:44.100Z,23.47
2018-03-27T22:21:11.574Z,22.30
2018-03-27T22:23:39.078Z,21.93
2018-03-27T22:26:06.553Z,21.73
2018-03-27T22:28:34.863Z,24.13
2018-03-27T22:31:02.340Z,21.17
2018-03-27T22:33:29.850Z,22.20
2018-03-27T22:35:57.314Z,21.93
2018-03-27T22:38:25.561Z,20.83
2018-03-27T22:40:53.030Z,22.37
2018-03-27T22:43:20.511Z,19.70
2018-03-27T22:45:48.737Z,19.40
2018-03-27T22:48:16.212Z,20.63
2018-03-27T22:50:43.681Z,19.13
2018-03-27T22:53:11.924Z,21.17
2018-03-27T22:55:39.389Z,20.10
2018-03-27T22:58:06.876Z,20.50
2018-03-27T23:00:35.109Z,19.70
2018-03-27T23:03:02.603Z,19.13
2018-03-27T23:05:30.889Z,19.73
2018-03-27T23:07:59.953Z,18.60
2018-03-27T23:10:27.409Z,21.53
2018-03-27T23:12:54.901Z,19.57
2018-03-27T23:15:23.138Z,19.27
2018-03-27T23:17:50.627Z,18.33
2018-03-27T23:20:18.867Z,19.20
2018-03-27T23:22:46.393Z,18.63
2018-03-27T23:25:13.857Z,19.37
2018-03-27T23:27:41.326Z,18.93
2018-03-27T23:30:08.809Z,19.13
2018-03-27T23:32:36.270Z,18.37
2018-03-27T23:35:03.877Z,18.17
2018-03-27T23:37:31.435Z,19.27
2018-03-27T23:39:58.915Z,19.20
2018-03-27T23:42:26.382Z,18.50
2018-03-27T23:44:53.886Z,17.63
2018-03-27T23:47:22.133Z,17.47
2018-03-27T23:49:49.638Z,17.63
2018-03-27T23:52:17.121Z,18.37
2018-03-27T23:54:44.617Z,16.47
2018-03-27T23:57:12.093Z,17.97
2018-03-27T23:59:40.389Z,16.60
